createdAt,value
2024-01-20T00:04:16.897Z,-5.3
2024-01-20T00:10:38.803Z,-5.42
2024-01-20T00:17:03.241Z,-5.54
2024-01-20T00:23:20.832Z,-5.63
2024-01-20T00:29:40.841Z,-5.77
2024-01-20T00:36:02.968Z,-5.79
2024-01-20T00:42:22.910Z,-5.82
2024-01-20T00:48:44.896Z,-5.97
2024-01-20T00:55:04.918Z,-5.92
2024-01-20T01:01:26.793Z,-6.09
2024-01-20T01:07:46.821Z,-6.12
2024-01-20T01:14:08.836Z,-6.13
2024-01-20T01:20:28.841Z,-6.21
2024-01-20T01:26:50.907Z,-6.28
2024-01-20T01:33:10.828Z,-6.24
2024-01-20T01:39:31.893Z,-6.29
2024-01-20T01:45:51.875Z,-6.29
2024-01-20T01:52:13.879Z,-6.26
2024-01-20T01:58:33.873Z,-6.37
2024-01-20T02:04:55.871Z,-6.44
2024-01-20T02:11:15.950Z,-6.49
2024-01-20T02:17:37.813Z,-6.51
2024-01-20T02:23:58.011Z,-6.59
2024-01-20T02:30:19.966Z,-6.74
2024-01-20T02:36:39.929Z,-6.96
2024-01-20T02:43:01.884Z,-6.97
2024-01-20T02:49:21.852Z,-7.05
2024-01-20T02:55:43.819Z,-7.14
2024-01-20T03:02:03.936Z,-7.03
2024-01-20T03:08:26.001Z,-6.84
2024-01-20T03:14:46.142Z,-7.06
2024-01-20T03:21:07.821Z,-7.29
2024-01-20T03:27:27.842Z,-7.35
2024-01-20T03:33:50.054Z,-7.42
2024-01-20T03:40:09.840Z,-7.29
2024-01-20T03:46:31.917Z,-7.23
2024-01-20T03:52:51.853Z,-7.01
2024-01-20T04:09:17.251Z,-7.23
2024-01-20T04:15:36.793Z,-7.23
2024-01-20T04:21:58.826Z,-7.24
2024-01-20T04:28:18.809Z,-7.26
2024-01-20T04:34:40.831Z,-7.34
2024-01-20T04:41:00.892Z,-7.28
2024-01-20T04:47:22.820Z,-7.44
2024-01-20T04:53:42.869Z,-7.42
2024-01-20T05:00:04.873Z,-7.36
2024-01-20T05:06:24.934Z,-7.32
2024-01-20T05:12:46.798Z,-7.39
2024-01-20T05:19:07.005Z,-7.37
2024-01-20T05:25:28.865Z,-7.38
2024-01-20T05:31:48.948Z,-7.33
2024-01-20T05:38:10.794Z,-7.25
2024-01-20T05:44:30.839Z,-7.35
2024-01-20T05:50:52.833Z,-7.36
2024-01-20T05:57:12.858Z,-7.36
2024-01-20T06:03:35.028Z,-7.43
2024-01-20T06:09:54.943Z,-7.44
2024-01-20T06:16:16.835Z,-7.42
2024-01-20T06:22:36.853Z,-7.43
2024-01-20T06:28:58.984Z,-7.44
2024-01-20T06:35:18.805Z,-7.53
2024-01-20T06:41:40.892Z,-7.54
2024-01-20T06:48:00.924Z,-7.61
2024-01-20T06:54:22.877Z,-7.5
2024-01-20T07:00:42.846Z,-7.45
2024-01-20T07:07:04.941Z,-7.51
2024-01-20T07:13:24.782Z,-7.53
2024-01-20T07:19:46.968Z,-7.5
2024-01-20T07:26:06.811Z,-7.47
2024-01-20T07:32:28.839Z,-7.43
2024-01-20T07:38:48.822Z,-7.47
2024-01-20T07:45:10.994Z,-7.42
2024-01-20T07:51:30.904Z,-7.38
2024-01-20T07:57:52.872Z,-7.33
2024-01-20T08:04:12.799Z,-7.22
2024-01-20T08:10:34.838Z,-7.37
2024-01-20T08:16:54.870Z,-7.19
2024-01-20T08:23:16.983Z,-7.11
2024-01-20T08:29:36.826Z,-6.98
2024-01-20T08:35:58.880Z,-6.8
2024-01-20T08:42:18.849Z,-6.67
2024-01-20T09:05:58.880Z,-6
2024-01-20T09:12:19.837Z,-5.75
2024-01-20T09:18:40.067Z,-5.54
2024-01-20T09:25:01.904Z,-5.33
2024-01-20T09:31:21.892Z,-5.11
2024-01-20T09:37:43.823Z,-5.03
2024-01-20T09:44:03.923Z,-4.8
2024-01-20T09:50:25.785Z,-4.54
2024-01-20T09:56:46.017Z,-4.35
2024-01-20T10:03:09.575Z,-4.09
2024-01-20T10:09:27.944Z,-3.89
2024-01-20T10:15:49.935Z,-3.67
2024-01-20T10:22:09.827Z,-3.37
2024-01-20T10:28:31.769Z,-3.05
2024-01-20T10:34:51.825Z,-2.96
2024-01-20T10:41:13.809Z,-2.75
2024-01-20T10:47:33.839Z,-2.45
2024-01-20T10:53:55.825Z,-2.21
2024-01-20T11:00:15.832Z,-1.78
2024-01-20T11:06:37.853Z,-1.68
2024-01-20T11:12:57.858Z,-1.52
2024-01-20T11:19:19.902Z,-1.42
2024-01-20T11:25:39.817Z,-1.32
2024-01-20T11:32:01.818Z,-1.18
2024-01-20T11:38:21.847Z,-0.9
2024-01-20T11:44:43.807Z,-0.6
2024-01-20T11:51:03.833Z,-0.5
2024-01-20T11:57:25.889Z,-0.52
2024-01-20T12:03:45.882Z,-0.34
2024-01-20T12:10:07.845Z,-0.14
2024-01-20T12:16:27.915Z,0.13
2024-01-20T12:22:49.954Z,0.25
2024-01-20T12:29:09.790Z,0.23
2024-01-20T12:35:31.977Z,0.25
2024-01-20T12:41:51.932Z,0.26
2024-01-20T12:48:14.014Z,0.42
2024-01-20T12:54:34.057Z,0.7
2024-01-20T13:00:55.883Z,0.87
2024-01-20T13:07:15.881Z,0.99
2024-01-20T13:13:37.910Z,0.8
2024-01-20T13:19:57.862Z,0.79
2024-01-20T13:26:19.858Z,0.77
2024-01-20T13:32:39.935Z,0.48
2024-01-20T13:39:01.797Z,0.98
2024-01-20T13:45:21.931Z,0.81
2024-01-20T14:02:30.333Z,0.41
2024-01-20T14:08:49.792Z,0.49
2024-01-20T14:15:11.971Z,0.6
2024-01-20T14:21:32.130Z,0.37
2024-01-20T14:27:54.237Z,0.48
2024-01-20T14:34:13.902Z,0.12
2024-01-20T14:40:35.936Z,-0.04
2024-01-20T14:46:55.815Z,-0.12
2024-01-20T14:53:17.824Z,-0.15
2024-01-20T14:59:37.845Z,-0.31
2024-01-20T15:06:00.069Z,-0.36
2024-01-20T15:12:20.047Z,-0.47
2024-01-20T15:18:41.941Z,-0.59
2024-01-20T15:25:01.933Z,-0.71
2024-01-20T15:31:23.950Z,-0.91
2024-01-20T15:37:43.857Z,-1
2024-01-20T15:44:05.852Z,-1.23
2024-01-20T15:50:25.793Z,-1.19
2024-01-20T15:56:48.253Z,-1.33
2024-01-20T16:03:08.031Z,-1.45
2024-01-20T16:09:29.865Z,-1.45
2024-01-20T16:15:50.005Z,-1.47
2024-01-20T16:22:12.021Z,-1.62
2024-01-20T16:28:33.326Z,-1.71
2024-01-20T16:34:53.939Z,-1.73
2024-01-20T16:41:13.790Z,-1.9
2024-01-20T16:47:36.065Z,-1.91
2024-01-20T16:53:55.877Z,-1.97
2024-01-20T17:00:17.963Z,-1.97
2024-01-20T17:06:38.040Z,-2.09
2024-01-20T17:12:59.983Z,-2.18
2024-01-20T17:19:19.941Z,-2.35
2024-01-20T17:25:41.923Z,-2.35
2024-01-20T17:32:01.863Z,-2.39
2024-01-20T17:38:23.910Z,-2.47
2024-01-20T17:44:43.840Z,-2.47
2024-01-20T17:51:05.996Z,-2.53
2024-01-20T17:57:25.793Z,-2.62
2024-01-20T18:03:48.213Z,-2.62
2024-01-20T18:20:54.731Z,-2.81
2024-01-20T18:27:15.783Z,-2.85
2024-01-20T18:33:35.904Z,-2.87
2024-01-20T18:39:57.797Z,-2.89
2024-01-20T18:46:16.834Z,-2.94
2024-01-20T18:52:38.857Z,-2.93
2024-01-20T18:58:58.955Z,-3.06
2024-01-20T19:05:20.898Z,-3.03
2024-01-20T19:11:40.828Z,-3.14
2024-01-20T19:18:03.251Z,-3.21
2024-01-20T19:24:22.888Z,-3.22
2024-01-20T19:30:44.887Z,-3.23
2024-01-20T19:37:04.971Z,-3.27
2024-01-20T19:43:26.938Z,-3.28
2024-01-20T19:49:46.869Z,-3.32
2024-01-20T19:56:08.843Z,-3.32
2024-01-20T20:02:28.793Z,-3.31
2024-01-20T20:08:50.801Z,-3.31
2024-01-20T20:15:10.919Z,-3.33
2024-01-20T20:21:32.935Z,-3.43
2024-01-20T20:27:52.880Z,-3.44
2024-01-20T20:34:14.940Z,-3.42
2024-01-20T20:40:34.904Z,-3.49
2024-01-20T20:46:58.066Z,-3.43
2024-01-20T20:53:16.920Z,-3.41
2024-01-20T20:59:38.817Z,-3.61
2024-01-20T21:05:58.894Z,-3.62
2024-01-20T21:12:21.073Z,-3.54
2024-01-20T21:18:40.843Z,-3.52
2024-01-20T21:25:02.872Z,-3.54
2024-01-20T21:31:23.013Z,-3.58
2024-01-20T21:37:45.189Z,-3.63
2024-01-20T21:44:05.031Z,-3.68
2024-01-20T21:50:26.992Z,-3.83
2024-01-20T21:56:46.796Z,-3.87
2024-01-20T22:03:09.018Z,-3.88
2024-01-20T22:09:28.830Z,-3.94
2024-01-20T22:15:50.977Z,-3.88
2024-01-20T22:22:10.932Z,-3.84
2024-01-20T22:28:32.854Z,-3.78
2024-01-20T22:34:52.828Z,-3.7
2024-01-20T22:41:14.825Z,-3.79
2024-01-20T22:57:38.808Z,-3.74
2024-01-20T23:19:25.910Z,-3.71
2024-01-20T23:25:45.810Z,-3.64
2024-01-20T23:32:07.944Z,-3.56
2024-01-20T23:38:27.892Z,-3.63
2024-01-20T23:44:49.930Z,-3.62
2024-01-20T23:51:09.828Z,-3.55
2024-01-20T23:57:34.832Z,-3.48
